Time;durP1;ratioP1;P1;durP2;ratioP2;P2;SDS_P1;SDS_P2;PMS_P1;PMS_P2;Temp;Humidity;BMP_temperature;BMP_pressure;BME280_temperature;BME280_humidity;BME280_pressure;Samples;Min_cycle;Max_cycle;Signal;HPM_P1;HPM_P2
2024/01/18 00:00:08;;;;;;;;;;;;;;;5.81;82.95;97129.75;4436694;32;33601;-92
2024/01/18 00:02:36;;;;;;;;;;;;;;;5.42;84.46;97133.19;4409126;32;32879;-92
2024/01/18 00:05:03;;;;;;;;;;;;;;;5.43;86.12;97128.91;4409345;32;34266;-92
2024/01/18 00:07:30;;;;;;;;;;;;;;;5.84;84.95;97118.59;4422304;32;33854;-91
2024/01/18 00:09:58;;;;;;;;;;;;;;;6.07;82.72;97119.44;4422070;32;33308;-89
2024/01/18 00:12:25;;;;;;;;;;;;;;;5.90;83.54;97110.00;4422052;32;33577;-91
2024/01/18 00:14:53;;;;;;;;;;;;;;;6.22;82.25;97110.84;4422237;32;33934;-92
2024/01/18 00:17:20;;;;;;;;;;;;;;;5.72;84.55;97122.06;4411728;32;33342;-91
2024/01/18 00:19:48;;;;;;;;;;;;;;;6.20;82.25;97116.84;4422085;32;32925;-90
2024/01/18 00:22:15;;;;;;;;;;;;;;;6.20;82.00;97109.97;4430845;32;33796;-92
2024/01/18 00:24:42;;;;;;;;;;;;;;;5.85;84.40;97116.03;4406930;32;34146;-90
2024/01/18 00:27:10;;;;;;;;;;;;;;;5.87;85.07;97108.28;4413443;32;33868;-90
2024/01/18 00:29:37;;;;;;;;;;;;;;;5.89;85.41;97101.44;4434879;32;34321;-92
2024/01/18 00:32:05;;;;;;;;;;;;;;;5.73;86.92;97107.47;4434051;32;34044;-90
2024/01/18 00:34:32;;;;;;;;;;;;;;;6.01;84.54;97101.44;4409186;32;35197;-91
2024/01/18 00:36:59;;;;;;;;;;;;;;;5.74;85.78;97104.03;4406446;32;34164;-91
2024/01/18 00:39:27;;;;;;;;;;;;;;;5.95;84.78;97095.47;4434757;32;32621;-91
2024/01/18 00:41:55;;;;;;;;;;;;;;;6.13;84.32;97103.13;4421448;32;33914;-91
2024/01/18 00:44:22;;;;;;;;;;;;;;;6.09;83.46;97093.69;4421340;32;34406;-89
2024/01/18 00:46:49;;;;;;;;;;;;;;;6.42;81.96;97105.59;4434108;32;34200;-90
2024/01/18 00:49:16;;;;;;;;;;;;;;;6.41;81.98;97105.63;4421080;32;32415;-90
2024/01/18 00:51:44;;;;;;;;;;;;;;;6.47;81.84;97100.44;4417131;32;33667;-90
2024/01/18 00:54:11;;;;;;;;;;;;;;;6.22;83.32;97097.97;4418932;32;33288;-90
2024/01/18 00:56:39;;;;;;;;;;;;;;;6.46;82.14;97083.28;4418793;32;34132;-91
2024/01/18 00:59:07;;;;;;;;;;;;;;;6.57;80.95;97089.25;4419792;32;34297;-89
2024/01/18 01:01:34;;;;;;;;;;;;;;;6.29;80.20;97083.38;4429621;32;33457;-90
2024/01/18 01:04:02;;;;;;;;;;;;;;;6.37;81.87;97083.34;4436040;32;34730;-90
2024/01/18 01:06:29;;;;;;;;;;;;;;;6.37;82.46;97079.03;4419284;32;33920;-89
2024/01/18 01:08:57;;;;;;;;;;;;;;;6.07;84.39;97077.44;4404482;32;33796;-89
2024/01/18 01:11:24;;;;;;;;;;;;;;;6.36;82.73;97068.75;4422699;32;33419;-89
2024/01/18 01:13:51;;;;;;;;;;;;;;;6.22;82.79;97063.66;4430864;32;34953;-89
2024/01/18 01:16:20;;;;;;;;;;;;;;;5.73;85.51;97058.63;4423339;32;33865;-91
2024/01/18 01:18:48;;;;;;;;;;;;;;;5.96;86.08;97058.59;4436152;32;34239;-91
2024/01/18 01:21:15;;;;;;;;;;;;;;;6.08;85.36;97056.84;4436129;32;33313;-91
2024/01/18 01:23:48;;;;;;;;;;;;;;;5.98;86.24;97060.28;4435367;32;34306;-91
2024/01/18 01:26:16;;;;;;;;;;;;;;;6.12;84.76;97060.25;4422945;32;32852;-90
2024/01/18 01:28:43;;;;;;;;;;;;;;;5.70;87.75;97046.63;4423321;32;32722;-91
2024/01/18 01:31:10;;;;;;;;;;;;;;;6.27;84.44;97039.62;4432472;32;33303;-90
2024/01/18 01:33:38;;;;;;;;;;;;;;;5.84;85.95;97031.19;4408052;32;34932;-90
2024/01/18 01:36:05;;;;;;;;;;;;;;;5.86;85.33;97040.56;4421008;32;33629;-91
2024/01/18 01:38:33;;;;;;;;;;;;;;;5.88;86.24;97038.03;4425922;32;33905;-91
2024/01/18 01:41:02;;;;;;;;;;;;;;;6.12;85.29;97028.53;4436590;32;35103;-92
2024/01/18 01:43:30;;;;;;;;;;;;;;;6.02;85.89;97027.69;4422357;32;33748;-90
2024/01/18 01:45:57;;;;;;;;;;;;;;;6.56;83.15;97026.59;4423219;32;33622;-91
2024/01/18 01:48:25;;;;;;;;;;;;;;;6.57;82.68;97018.00;4422959;32;33618;-92
2024/01/18 01:50:53;;;;;;;;;;;;;;;6.07;85.14;97013.13;4410903;32;33041;-92
2024/01/18 01:53:21;;;;;;;;;;;;;;;6.34;83.60;97005.28;4407563;32;33576;-93
2024/01/18 01:55:48;;;;;;;;;;;;;;;6.48;82.28;97004.34;4408010;32;34576;-92
2024/01/18 01:58:16;;;;;;;;;;;;;;;6.34;82.37;96994.97;4431208;32;33620;-92
2024/01/18 02:00:43;;;;;;;;;;;;;;;6.21;83.86;96985.63;4422616;32;33990;-93
2024/01/18 02:03:11;;;;;;;;;;;;;;;6.39;82.72;96989.81;4406584;32;34091;-91
2024/01/18 02:05:38;;;;;;;;;;;;;;;6.39;82.07;96994.09;4408174;32;34242;-93
2024/01/18 02:08:05;;;;;;;;;;;;;;;6.28;83.48;96997.56;4420506;32;33152;-91
2024/01/18 02:10:33;;;;;;;;;;;;;;;6.42;83.06;96981.22;4421949;32;33837;-92
2024/01/18 02:13:01;;;;;;;;;;;;;;;6.40;83.58;96985.50;4408201;32;34118;-92
2024/01/18 02:15:28;;;;;;;;;;;;;;;6.40;83.37;96980.34;4421259;32;34255;-90
2024/01/18 02:17:56;;;;;;;;;;;;;;;6.57;81.48;96958.81;4422953;32;33997;-92
2024/01/18 02:20:23;;;;;;;;;;;;;;;6.48;82.32;96958.03;4435433;32;34077;-92
2024/01/18 02:22:51;;;;;;;;;;;;;;;6.57;81.54;96965.66;4420976;32;35141;-91
2024/01/18 02:25:20;;;;;;;;;;;;;;;6.56;80.86;96961.41;4407614;32;33707;-92
2024/01/18 02:27:47;;;;;;;;;;;;;;;6.61;79.89;96956.22;4422020;32;33636;-94
2024/01/18 02:30:14;;;;;;;;;;;;;;;6.47;80.83;96962.28;4420446;32;33861;-92
2024/01/18 02:32:42;;;;;;;;;;;;;;;6.49;80.00;96949.44;4416335;32;33217;-93
2024/01/18 02:35:09;;;;;;;;;;;;;;;6.66;79.72;96942.41;4422139;32;34343;-92
2024/01/18 02:37:36;;;;;;;;;;;;;;;6.58;79.74;96944.19;4422343;32;33227;-90
2024/01/18 02:40:05;;;;;;;;;;;;;;;6.61;78.81;96935.63;4410684;32;33120;-92
2024/01/18 02:42:32;;;;;;;;;;;;;;;6.46;80.17;96939.16;4409098;32;33405;-93
2024/01/18 02:45:02;;;;;;;;;;;;;;;6.58;80.34;96924.47;4421948;32;33276;-91
2024/01/18 02:47:31;;;;;;;;;;;;;;;6.65;80.70;96925.28;4423077;32;32537;-91
2024/01/18 02:49:59;;;;;;;;;;;;;;;6.89;80.23;96925.94;4422045;32;33228;-90
2024/01/18 02:52:26;;;;;;;;;;;;;;;6.99;78.91;96919.84;4409377;32;33445;-91
2024/01/18 02:54:54;;;;;;;;;;;;;;;6.72;80.36;96919.22;4422739;32;33276;-90
2024/01/18 02:57:21;;;;;;;;;;;;;;;6.91;80.23;96929.37;4435760;32;33408;-90
2024/01/18 02:59:48;;;;;;;;;;;;;;;6.90;80.11;96931.09;4430090;32;34960;-93
2024/01/18 03:02:16;;;;;;;;;;;;;;;6.98;80.03;96924.16;4422155;32;34048;-93
2024/01/18 03:04:43;;;;;;;;;;;;;;;6.99;80.55;96930.16;4437454;32;35109;-93
2024/01/18 03:07:10;;;;;;;;;;;;;;;6.82;81.33;96917.44;4435795;32;33200;-94
2024/01/18 03:09:38;;;;;;;;;;;;;;;7.01;80.34;96933.56;4422184;32;34179;-94
2024/01/18 03:12:07;;;;;;;;;;;;;;;6.76;81.70;96938.06;4408123;32;34783;-93
2024/01/18 03:14:35;;;;;;;;;;;;;;;6.64;81.30;96928.72;4419953;32;32756;-93
2024/01/18 03:17:04;;;;;;;;;;;;;;;6.60;83.15;96934.75;4436234;32;33614;-93
2024/01/18 03:19:32;;;;;;;;;;;;;;;6.91;82.08;96916.47;4422904;32;33137;-93
2024/01/18 03:21:59;;;;;;;;;;;;;;;7.10;80.70;96923.16;4435442;32;34347;-93
2024/01/18 03:24:26;;;;;;;;;;;;;;;7.10;79.64;96938.63;4433837;32;34287;-94
2024/01/18 03:26:54;;;;;;;;;;;;;;;6.98;81.21;96924.16;4436738;32;33177;-92
2024/01/18 03:29:21;;;;;;;;;;;;;;;7.00;79.76;96921.53;4436079;32;33863;-91
2024/01/18 03:31:49;;;;;;;;;;;;;;;7.00;79.93;96921.53;4435264;32;34139;-89
2024/01/18 03:34:16;;;;;;;;;;;;;;;7.06;79.57;96931.81;4431909;32;34408;-90
2024/01/18 03:36:43;;;;;;;;;;;;;;;7.30;79.05;96916.09;4421176;32;33883;-89
2024/01/18 03:39:11;;;;;;;;;;;;;;;7.03;78.77;96918.94;4405657;32;32702;-88
2024/01/18 03:41:38;;;;;;;;;;;;;;;6.97;79.24;96913.84;4422447;32;33402;-90
2024/01/18 03:44:05;;;;;;;;;;;;;;;7.03;78.79;96916.38;4421501;32;33530;-91
2024/01/18 03:46:33;;;;;;;;;;;;;;;6.86;78.27;96907.94;4422083;32;33351;-90
2024/01/18 03:49:00;;;;;;;;;;;;;;;7.01;78.51;96910.41;4436335;32;34813;-89
2024/01/18 03:51:28;;;;;;;;;;;;;;;7.03;78.13;96918.94;4436395;32;34956;-92
2024/01/18 03:53:56;;;;;;;;;;;;;;;7.19;77.42;96910.19;4411216;32;34397;-93
2024/01/18 03:56:24;;;;;;;;;;;;;;;6.98;77.69;96925.88;4431672;32;33977;-91
2024/01/18 03:58:51;;;;;;;;;;;;;;;7.19;77.25;96922.22;4436652;32;33895;-91
2024/01/18 04:01:19;;;;;;;;;;;;;;;7.18;76.82;96915.38;4421705;32;33262;-93
2024/01/18 04:03:48;;;;;;;;;;;;;;;7.09;76.80;96915.47;4409644;32;33545;-92
2024/01/18 04:06:16;;;;;;;;;;;;;;;7.06;76.63;96913.78;4422937;32;33144;-91
2024/01/18 04:08:44;;;;;;;;;;;;;;;7.32;76.06;96909.19;4422634;32;34592;-92
2024/01/18 04:11:11;;;;;;;;;;;;;;;7.34;75.49;96904.03;4423068;32;34124;-92
2024/01/18 04:13:38;;;;;;;;;;;;;;;7.32;75.10;96896.31;4435578;32;34430;-93
2024/01/18 04:16:06;;;;;;;;;;;;;;;7.21;75.46;96895.56;4436236;32;33196;-93
2024/01/18 04:18:34;;;;;;;;;;;;;;;7.18;75.62;96898.19;4421948;32;34021;-93
2024/01/18 04:21:01;;;;;;;;;;;;;;;7.34;74.95;96892.88;4436680;32;34413;-93
2024/01/18 04:23:29;;;;;;;;;;;;;;;7.38;74.89;96891.97;4432230;32;34524;-93
2024/01/18 04:25:56;;;;;;;;;;;;;;;7.35;74.30;96891.97;4419520;32;33262;-92
2024/01/18 04:28:23;;;;;;;;;;;;;;;7.24;74.15;96874.94;4427438;32;33362;-92
2024/01/18 04:30:51;;;;;;;;;;;;;;;7.37;74.79;96883.37;4430955;32;34320;-92
2024/01/18 04:33:18;;;;;;;;;;;;;;;7.29;74.43;96872.31;4418308;32;35219;-92
2024/01/18 04:35:46;;;;;;;;;;;;;;;7.27;74.06;96872.34;4406911;32;32381;-95
2024/01/18 04:38:13;;;;;;;;;;;;;;;7.21;74.25;96867.22;4415696;32;33192;-94
2024/01/18 04:40:41;;;;;;;;;;;;;;;7.24;74.41;96868.94;4422421;32;35198;-94
2024/01/18 04:43:08;;;;;;;;;;;;;;;7.17;74.84;96860.41;4421458;32;34190;-94
2024/01/18 04:45:35;;;;;;;;;;;;;;;7.01;75.05;96871.75;4421516;32;33145;-92
2024/01/18 04:48:03;;;;;;;;;;;;;;;7.14;74.90;96863.00;4436796;32;33930;-90
2024/01/18 04:50:31;;;;;;;;;;;;;;;7.28;74.53;96871.44;4421848;32;33989;-90
2024/01/18 04:53:00;;;;;;;;;;;;;;;7.11;74.75;96867.34;4408780;32;33834;-91
2024/01/18 04:55:28;;;;;;;;;;;;;;;7.18;74.59;96858.69;4434381;32;33258;-89
2024/01/18 04:57:56;;;;;;;;;;;;;;;7.24;74.49;96874.09;4401840;32;33347;-91
2024/01/18 05:00:23;;;;;;;;;;;;;;;7.32;74.25;96861.97;4408388;32;33222;-91
2024/01/18 05:02:51;;;;;;;;;;;;;;;7.19;74.57;96866.38;4420982;32;34383;-90
2024/01/18 05:05:19;;;;;;;;;;;;;;;7.25;74.66;96865.47;4406220;32;33436;-92
2024/01/18 05:07:47;;;;;;;;;;;;;;;7.24;74.93;96868.94;4407591;32;33007;-94
2024/01/18 05:10:15;;;;;;;;;;;;;;;7.28;75.02;96866.28;4422015;32;34253;-92
2024/01/18 05:12:44;;;;;;;;;;;;;;;7.31;74.85;96866.28;4435864;32;34415;-93
2024/01/18 05:15:12;;;;;;;;;;;;;;;7.34;74.83;96867.09;4421672;32;33197;-93
2024/01/18 05:17:41;;;;;;;;;;;;;;;7.31;74.81;96868.84;4421552;32;33877;-92
2024/01/18 05:20:08;;;;;;;;;;;;;;;7.44;74.45;96860.97;4406985;32;34306;-89
2024/01/18 05:22:36;;;;;;;;;;;;;;;7.37;74.54;96864.47;4426539;32;34159;-88
2024/01/18 05:25:03;;;;;;;;;;;;;;;6.97;75.94;96872.62;4433640;32;32708;-92
2024/01/18 05:27:31;;;;;;;;;;;;;;;6.97;75.97;96872.62;4422045;32;32639;-91
2024/01/18 05:29:58;;;;;;;;;;;;;;;7.07;76.01;96861.37;4420512;32;34096;-93
2024/01/18 05:32:26;;;;;;;;;;;;;;;7.30;75.90;96854.22;4420753;32;35030;-93
2024/01/18 05:34:53;;;;;;;;;;;;;;;7.01;76.70;96857.16;4422006;32;33636;-94
2024/01/18 05:37:22;;;;;;;;;;;;;;;7.09;76.06;96869.94;4436223;32;34080;-94
2024/01/18 05:39:50;;;;;;;;;;;;;;;7.18;75.73;96866.41;4421741;32;34095;-96
2024/01/18 05:42:22;;;;;;;;;;;;;;;7.27;75.29;96863.72;4422888;32;34111;-93
2024/01/18 05:44:50;;;;;;;;;;;;;;;7.29;75.54;96860.25;4397220;32;892513;-92
2024/01/18 05:47:20;;;;;;;;;;;;;;;7.39;74.56;96857.59;4433256;32;34135;-93
2024/01/18 05:49:48;;;;;;;;;;;;;;;7.43;74.59;96861.84;4422937;32;34335;-91
2024/01/18 05:52:16;;;;;;;;;;;;;;;7.50;74.56;96863.44;4410797;32;34692;-91
2024/01/18 05:54:43;;;;;;;;;;;;;;;7.55;74.37;96859.09;4434810;32;34219;-91
2024/01/18 05:57:11;;;;;;;;;;;;;;;7.70;73.84;96853.75;4433495;32;33710;-91
2024/01/18 05:59:39;;;;;;;;;;;;;;;7.58;74.50;96859.06;4435740;32;33592;-95
2024/01/18 06:02:09;;;;;;;;;;;;;;;7.64;74.17;96858.97;4424430;32;34442;-93
2024/01/18 06:04:36;;;;;;;;;;;;;;;7.53;73.69;96859.09;4435746;32;33459;-94
2024/01/18 06:07:04;;;;;;;;;;;;;;;7.54;74.07;96863.41;4408688;32;34056;-94
2024/01/18 06:09:31;;;;;;;;;;;;;;;7.47;74.63;96871.25;4410477;32;33439;-93
2024/01/18 06:11:59;;;;;;;;;;;;;;;7.54;74.65;96860.00;4436714;32;33011;-93
2024/01/18 06:14:27;;;;;;;;;;;;;;;7.47;75.03;96860.94;4410792;32;32853;-93
2024/01/18 06:16:54;;;;;;;;;;;;;;;7.52;74.68;96864.31;4416370;32;33836;-94
2024/01/18 06:19:22;;;;;;;;;;;;;;;7.64;74.14;96863.28;4423352;32;33847;-94
2024/01/18 06:21:50;;;;;;;;;;;;;;;7.52;74.12;96853.97;4410677;32;33105;-94
2024/01/18 06:24:18;;;;;;;;;;;;;;;7.49;73.85;96861.75;4411124;32;32010;-94
2024/01/18 06:26:45;;;;;;;;;;;;;;;7.50;73.92;96861.75;4424220;32;34122;-93
2024/01/18 06:29:16;;;;;;;;;;;;;;;7.60;73.86;96862.47;4410213;32;33513;-94
2024/01/18 06:31:43;;;;;;;;;;;;;;;7.52;73.66;96865.16;4411367;32;32986;-92
2024/01/18 06:34:11;;;;;;;;;;;;;;;7.58;73.71;96871.97;4423632;32;33236;-92
2024/01/18 06:36:39;;;;;;;;;;;;;;;7.66;73.56;96872.72;4436599;32;33932;-92
2024/01/18 06:39:07;;;;;;;;;;;;;;;7.69;73.26;96880.44;4421356;32;34208;-92
2024/01/18 06:41:35;;;;;;;;;;;;;;;7.68;73.15;96877.84;4408875;32;32892;-94
2024/01/18 06:44:02;;;;;;;;;;;;;;;7.66;73.41;96885.63;4410287;32;32370;-92
2024/01/18 06:46:29;;;;;;;;;;;;;;;7.79;72.97;96884.56;4421557;32;33475;-92
2024/01/18 06:48:57;;;;;;;;;;;;;;;7.79;72.89;96874.25;4420127;32;33867;-92
2024/01/18 06:51:24;;;;;;;;;;;;;;;7.80;72.54;96883.72;4420262;32;34346;-91
2024/01/18 06:53:52;;;;;;;;;;;;;;;7.62;72.81;96883.09;4407431;32;33387;-91
2024/01/18 06:56:19;;;;;;;;;;;;;;;7.76;72.67;96879.44;4394208;32;34226;-91
2024/01/18 06:58:47;;;;;;;;;;;;;;;7.66;72.63;96879.62;4420197;32;33859;-92
2024/01/18 07:01:14;;;;;;;;;;;;;;;7.68;72.85;96880.44;4414498;32;34403;-93
2024/01/18 07:03:42;;;;;;;;;;;;;;;7.77;72.81;96870.00;4435818;32;33350;-91
2024/01/18 07:06:10;;;;;;;;;;;;;;;7.78;72.61;96882.03;4422596;32;33186;-91
2024/01/18 07:08:37;;;;;;;;;;;;;;;7.74;72.80;96865.75;4435044;32;34012;-91
2024/01/18 07:11:05;;;;;;;;;;;;;;;7.68;72.54;96865.81;4423042;32;34066;-90
2024/01/18 07:13:32;;;;;;;;;;;;;;;7.50;72.95;96866.91;4435293;32;34152;-91
2024/01/18 07:16:00;;;;;;;;;;;;;;;7.61;73.00;96869.31;4435528;32;34889;-90
2024/01/18 07:18:28;;;;;;;;;;;;;;;7.67;72.97;96874.41;4436086;32;34112;-91
2024/01/18 07:20:55;;;;;;;;;;;;;;;7.78;72.75;96862.25;4409151;32;33255;-91
2024/01/18 07:23:22;;;;;;;;;;;;;;;7.78;72.64;96871.72;4422683;32;33936;-91
2024/01/18 07:25:51;;;;;;;;;;;;;;;7.85;72.58;96869.91;4436558;32;34852;-91
2024/01/18 07:28:19;;;;;;;;;;;;;;;7.90;72.49;96870.69;4435371;32;34135;-91
2024/01/18 07:30:47;;;;;;;;;;;;;;;7.80;72.55;96876.00;4436167;32;35010;-92
2024/01/18 07:33:16;;;;;;;;;;;;;;;7.64;72.55;96877.03;4435294;32;32294;-91
2024/01/18 07:35:43;;;;;;;;;;;;;;;7.82;72.70;96877.69;4409838;32;33549;-90
2024/01/18 07:38:11;;;;;;;;;;;;;;;7.94;72.15;96886.09;4435353;32;34347;-90
2024/01/18 07:40:38;;;;;;;;;;;;;;;7.97;72.28;96890.38;4409553;32;33597;-90
2024/01/18 07:43:06;;;;;;;;;;;;;;;7.83;72.64;96889.69;4420866;32;32695;-92
2024/01/18 07:45:33;;;;;;;;;;;;;;;7.99;72.08;96898.94;4418392;32;33895;-90
2024/01/18 07:48:00;;;;;;;;;;;;;;;7.85;72.49;96900.88;4424082;32;35193;-91
2024/01/18 07:50:28;;;;;;;;;;;;;;;7.65;73.02;96896.81;4435404;32;33334;-91
2024/01/18 07:53:07;;;;;;;;;;;;;;;7.60;73.01;96908.88;4422470;32;33912;-90
2024/01/18 07:55:34;;;;;;;;;;;;;;;7.67;73.42;96909.69;4421459;32;33385;-92
2024/01/18 07:58:01;;;;;;;;;;;;;;;7.74;72.68;96904.44;4396659;32;34183;-91
2024/01/18 08:00:29;;;;;;;;;;;;;;;7.65;73.33;96904.56;4409724;32;33185;-91
2024/01/18 08:02:57;;;;;;;;;;;;;;;7.82;73.02;96909.47;4408989;32;32727;-90
2024/01/18 08:05:27;;;;;;;;;;;;;;;7.87;72.84;96912.84;4409756;32;32785;-91
2024/01/18 08:07:55;;;;;;;;;;;;;;;7.87;72.77;96906.84;4436158;32;35108;-91
2024/01/18 08:10:23;;;;;;;;;;;;;;;7.68;73.38;96906.22;4435288;32;35116;-90
2024/01/18 08:12:52;;;;;;;;;;;;;;;7.91;72.96;96909.34;4422192;32;32815;-91
2024/01/18 08:15:21;;;;;;;;;;;;;;;7.98;72.72;96910.12;4409944;32;34821;-91
2024/01/18 08:17:49;;;;;;;;;;;;;;;8.04;72.57;96904.91;4422016;32;33886;-91
2024/01/18 08:20:16;;;;;;;;;;;;;;;8.09;72.57;96910.00;4422256;32;34455;-91
2024/01/18 08:22:44;;;;;;;;;;;;;;;8.09;72.69;96897.94;4409389;32;33329;-91
2024/01/18 08:25:11;;;;;;;;;;;;;;;8.12;72.46;96905.66;4409199;32;33990;-90
2024/01/18 08:27:39;;;;;;;;;;;;;;;8.11;72.93;96906.53;4409508;32;34014;-91
2024/01/18 08:30:06;;;;;;;;;;;;;;;8.18;73.12;96902.12;4408301;32;32930;-90
2024/01/18 08:32:34;;;;;;;;;;;;;;;8.24;73.17;96910.62;4409408;32;32641;-90
2024/01/18 08:35:03;;;;;;;;;;;;;;;8.10;73.45;96904.81;4409316;32;33558;-92
2024/01/18 08:37:30;;;;;;;;;;;;;;;8.24;73.39;96905.47;4409305;32;33287;-92
2024/01/18 08:39:57;;;;;;;;;;;;;;;8.30;73.45;96904.53;4409321;32;34466;-90
2024/01/18 08:42:25;;;;;;;;;;;;;;;8.40;73.45;96913.03;4396770;32;33981;-91
2024/01/18 08:44:52;;;;;;;;;;;;;;;8.32;73.32;96914.84;4408141;32;33588;-91
2024/01/18 08:47:21;;;;;;;;;;;;;;;8.31;73.81;96915.72;4396639;32;34265;-90
2024/01/18 08:49:48;;;;;;;;;;;;;;;8.44;73.69;96917.25;4409228;32;34441;-92
2024/01/18 08:52:15;;;;;;;;;;;;;;;8.45;73.70;96917.25;4408350;32;33052;-91
2024/01/18 08:54:43;;;;;;;;;;;;;;;8.46;73.65;96918.97;4421801;32;33823;-91
2024/01/18 08:57:10;;;;;;;;;;;;;;;8.51;73.96;96921.47;4409076;32;34635;-92
2024/01/18 08:59:38;;;;;;;;;;;;;;;8.60;73.80;96926.50;4434601;32;34559;-91
2024/01/18 09:02:05;;;;;;;;;;;;;;;8.48;74.81;96930.09;4421194;32;33715;-92
2024/01/18 09:04:46;;;;;;;;;;;;;;;8.43;75.13;96938.81;4409988;32;33132;-92
2024/01/18 09:07:15;;;;;;;;;;;;;;;8.46;75.28;96941.34;4407803;32;33530;-88
2024/01/18 09:09:44;;;;;;;;;;;;;;;8.64;75.15;96942.81;4421597;32;35105;-88
2024/01/18 09:12:13;;;;;;;;;;;;;;;8.66;77.23;96944.47;4409099;32;32420;-90
2024/01/18 09:14:41;;;;;;;;;;;;;;;8.69;76.88;96941.84;4421808;32;34091;-91
2024/01/18 09:17:12;;;;;;;;;;;;;;;8.84;76.27;96945.06;4434258;32;34234;-89
2024/01/18 09:19:39;;;;;;;;;;;;;;;8.90;75.98;96939.78;4419044;32;34512;-88
2024/01/18 09:22:07;;;;;;;;;;;;;;;9.15;75.40;96943.69;4422055;32;31706;-89
2024/01/18 09:24:34;;;;;;;;;;;;;;;9.14;75.09;96939.41;4435919;32;34177;-90
2024/01/18 09:27:01;;;;;;;;;;;;;;;9.10;75.45;96935.16;4435871;32;35231;-87
2024/01/18 09:29:29;;;;;;;;;;;;;;;9.09;75.45;96933.47;4436830;32;34357;-87
2024/01/18 09:31:56;;;;;;;;;;;;;;;9.28;75.15;96936.59;4437355;32;34271;-87
2024/01/18 09:34:24;;;;;;;;;;;;;;;9.36;74.85;96944.19;4436854;32;34080;-91
2024/01/18 09:36:51;;;;;;;;;;;;;;;9.17;75.74;96946.25;4435518;32;35201;-88
2024/01/18 09:39:19;;;;;;;;;;;;;;;9.25;76.20;96941.81;4423408;32;34199;-93
2024/01/18 09:41:53;;;;;;;;;;;;;;;9.36;75.95;96933.84;4436026;32;33120;-90
2024/01/18 09:44:25;;;;;;;;;;;;;;;9.33;76.14;96934.75;4423897;32;34470;-93
2024/01/18 09:46:53;;;;;;;;;;;;;;;9.36;76.41;96941.62;4423681;32;34694;-94
2024/01/18 09:49:21;;;;;;;;;;;;;;;9.27;76.54;96927.94;4423416;32;34443;-91
2024/01/18 09:51:48;;;;;;;;;;;;;;;9.12;77.16;96923.03;4424278;32;34314;-90
2024/01/18 09:54:17;;;;;;;;;;;;;;;9.35;76.77;96924.38;4426203;32;34027;-94
2024/01/18 09:56:45;;;;;;;;;;;;;;;9.10;77.91;96935.16;4436870;32;33238;-89
2024/01/18 09:59:15;;;;;;;;;;;;;;;9.20;78.28;96938.41;4407772;32;33375;-89
2024/01/18 10:01:43;;;;;;;;;;;;;;;8.97;78.93;96943.97;4433356;32;34277;-89
2024/01/18 10:04:12;;;;;;;;;;;;;;;8.95;79.25;96930.25;4407841;32;34032;-89
2024/01/18 10:06:39;;;;;;;;;;;;;;;9.07;77.71;96921.44;4420655;32;33269;-91
2024/01/18 10:09:10;;;;;;;;;;;;;;;9.09;78.13;96932.59;4420126;32;33347;-90
2024/01/18 10:11:38;;;;;;;;;;;;;;;9.25;77.51;96926.28;4407868;32;32150;-90
2024/01/18 10:14:06;;;;;;;;;;;;;;;9.22;76.85;96918.59;4409766;32;33102;-89
2024/01/18 10:16:37;;;;;;;;;;;;;;;9.25;77.26;96923.69;4423083;32;33916;-89
2024/01/18 10:19:07;;;;;;;;;;;;;;;9.31;77.08;96914.97;4435817;32;34285;-92
2024/01/18 10:21:34;;;;;;;;;;;;;;;9.40;76.76;96914.81;4422854;32;33688;-89
2024/01/18 10:24:05;;;;;;;;;;;;;;;9.40;76.87;96910.50;4435533;32;34917;-92
2024/01/18 10:26:33;;;;;;;;;;;;;;;9.45;76.65;96908.66;4423042;32;34282;-91
2024/01/18 10:29:00;;;;;;;;;;;;;;;9.32;77.68;96914.06;4422935;32;34424;-92
2024/01/18 10:31:33;;;;;;;;;;;;;;;9.59;76.82;96912.72;4435424;32;34439;-90
2024/01/18 10:34:02;;;;;;;;;;;;;;;9.52;76.54;96909.41;4437068;32;33728;-90
2024/01/18 10:36:30;;;;;;;;;;;;;;;9.47;76.30;96904.31;4436738;32;33513;-89
2024/01/18 10:38:57;;;;;;;;;;;;;;;9.49;76.84;96904.28;4422721;32;33437;-89
2024/01/18 10:41:25;;;;;;;;;;;;;;;9.65;76.21;96910.84;4420584;32;31982;-89
2024/01/18 10:43:52;;;;;;;;;;;;;;;9.74;75.78;96910.69;4420680;32;34062;-90
2024/01/18 10:46:19;;;;;;;;;;;;;;;9.58;76.91;96911.84;4435603;32;34351;-90
2024/01/18 10:48:47;;;;;;;;;;;;;;;9.73;76.45;96897.75;4435664;32;35046;-90
2024/01/18 10:51:14;;;;;;;;;;;;;;;9.78;76.10;96900.28;4411274;32;34007;-90
2024/01/18 10:53:42;;;;;;;;;;;;;;;9.93;75.80;96887.88;4423519;32;34548;-91
2024/01/18 10:56:12;;;;;;;;;;;;;;;9.94;75.80;96893.88;4411752;32;34117;-91
2024/01/18 10:58:40;;;;;;;;;;;;;;;10.06;75.14;96892.78;4411371;32;33254;-92
2024/01/18 11:01:08;;;;;;;;;;;;;;;9.73;76.55;96893.44;4409278;32;32266;-91
2024/01/18 11:03:36;;;;;;;;;;;;;;;9.63;78.04;96894.53;4422212;32;34487;-89
2024/01/18 11:06:09;;;;;;;;;;;;;;;9.83;77.17;96888.09;4435171;32;34257;-90
2024/01/18 11:08:37;;;;;;;;;;;;;;;9.69;79.08;96890.94;4410798;32;33595;-90
2024/01/18 11:11:05;;;;;;;;;;;;;;;9.72;79.44;96891.75;4410367;32;33625;-89
2024/01/18 11:13:32;;;;;;;;;;;;;;;9.42;80.75;96895.78;4422909;32;33772;-91
2024/01/18 11:16:00;;;;;;;;;;;;;;;9.09;82.96;96894.69;4423015;32;35204;-90
2024/01/18 11:18:29;;;;;;;;;;;;;;;9.50;80.53;96888.72;4432574;32;35656;-89
2024/01/18 11:21:08;;;;;;;;;;;;;;;9.71;79.62;96884.88;4420540;32;34176;-90
2024/01/18 11:23:37;;;;;;;;;;;;;;;9.75;79.47;96886.50;4431315;32;33884;-92
2024/01/18 11:26:05;;;;;;;;;;;;;;;9.93;78.67;96884.44;4435941;32;34043;-91
2024/01/18 11:28:33;;;;;;;;;;;;;;;9.79;79.50;96886.44;4422863;32;33297;-90
2024/01/18 11:31:00;;;;;;;;;;;;;;;10.05;78.51;96880.72;4435952;32;33631;-92
2024/01/18 11:33:28;;;;;;;;;;;;;;;9.98;78.33;96888.59;4412908;32;32655;-91
2024/01/18 11:35:58;;;;;;;;;;;;;;;9.89;78.71;96872.44;4407331;32;33743;-91
2024/01/18 11:38:32;;;;;;;;;;;;;;;9.47;82.04;96875.00;4417671;32;35102;-90
2024/01/18 11:41:10;;;;;;;;;;;;;;;9.63;81.74;96870.41;4433641;32;33642;-90
2024/01/18 11:43:56;;;;;;;;;;;;;;;9.55;81.61;96888.66;4409414;32;34628;-92
2024/01/18 11:46:41;;;;;;;;;;;;;;;9.50;81.83;96872.34;4409992;32;33248;-90
2024/01/18 11:49:09;;;;;;;;;;;;;;;9.59;82.72;96867.00;4409559;32;33173;-89
2024/01/18 11:51:36;;;;;;;;;;;;;;;9.30;83.17;96866.72;4435289;32;32412;-89
2024/01/18 11:54:04;;;;;;;;;;;;;;;9.01;86.03;96870.69;4409747;32;33449;-92
2024/01/18 11:56:34;;;;;;;;;;;;;;;9.27;84.87;96857.28;4408982;32;34174;-91
2024/01/18 11:59:02;;;;;;;;;;;;;;;9.50;83.85;96854.25;4422484;32;33971;-90
2024/01/18 12:01:32;;;;;;;;;;;;;;;9.72;83.28;96858.09;4409911;32;33036;-90
2024/01/18 12:04:00;;;;;;;;;;;;;;;9.69;83.33;96849.56;4409756;32;32981;-89
2024/01/18 12:06:28;;;;;;;;;;;;;;;9.74;82.20;96858.94;4409770;32;34333;-91
2024/01/18 12:08:56;;;;;;;;;;;;;;;9.88;81.65;96850.00;4412459;32;33686;-91
2024/01/18 12:11:25;;;;;;;;;;;;;;;9.65;82.48;96853.09;4433828;32;33507;-89
2024/01/18 12:13:52;;;;;;;;;;;;;;;9.56;82.78;96859.31;4421329;32;33752;-91
2024/01/18 12:16:21;;;;;;;;;;;;;;;9.49;82.98;96857.72;4421053;32;32993;-90
2024/01/18 12:18:49;;;;;;;;;;;;;;;9.54;82.23;96861.06;4408982;32;34060;-90
2024/01/18 12:21:22;;;;;;;;;;;;;;;9.89;80.68;96852.59;4434230;32;33116;-93
2024/01/18 12:23:50;;;;;;;;;;;;;;;10.10;78.95;96845.22;4409588;32;32724;-90
2024/01/18 12:26:18;;;;;;;;;;;;;;;10.05;78.80;96841.91;4421903;32;34252;-91
2024/01/18 12:28:45;;;;;;;;;;;;;;;10.14;78.46;96850.28;4408990;32;33757;-90
2024/01/18 12:31:13;;;;;;;;;;;;;;;9.99;77.90;96850.63;4421570;32;33379;-91
2024/01/18 12:33:40;;;;;;;;;;;;;;;10.06;77.73;96852.19;4414007;32;34166;-90
2024/01/18 12:36:07;;;;;;;;;;;;;;;9.94;77.76;96845.56;4414482;32;35258;-90
2024/01/18 12:38:36;;;;;;;;;;;;;;;10.05;77.82;96849.66;4412261;32;34104;-89
2024/01/18 12:41:04;;;;;;;;;;;;;;;10.24;77.36;96859.56;4407198;32;32054;-89
2024/01/18 12:43:31;;;;;;;;;;;;;;;10.30;76.93;96855.16;4408956;32;33308;-91
2024/01/18 12:45:59;;;;;;;;;;;;;;;10.22;77.01;96861.31;4418582;32;33339;-91
2024/01/18 12:48:27;;;;;;;;;;;;;;;10.15;76.34;96862.38;4418666;32;33826;-90
2024/01/18 12:50:55;;;;;;;;;;;;;;;9.95;77.97;96856.75;4419303;32;32726;-89
2024/01/18 12:53:23;;;;;;;;;;;;;;;10.14;77.73;96859.78;4414075;32;33727;-89
2024/01/18 12:55:51;;;;;;;;;;;;;;;10.23;76.55;96847.50;4394394;32;33479;-89
2024/01/18 12:58:18;;;;;;;;;;;;;;;10.19;77.87;96848.47;4399819;32;35148;-91